Capital City Airport
KLAN : now visible

Airfield :











YOU CAN JOIN US ON...

 
LOGIN :

Register | Disclaimer

   EN    FR    IT 

 









Legend :    VFR   Marginal VFR   IFR   Intensive IFR   Very Intensive IFR
Visi :
Ceiling :
>= 8 km
>= 3000ft
5 to 8 km
1000 to 3000 ft
1500m to 5 km
500 to 1000 ft
800 to 1500m
200 to 500 ft
< 800m
< 200 ft
Symbols :   Thunderstorms  Fog  Heavy snow  Heavy precipitations  Wind > 20 kt







- Airport Elevation : 861 ft
- IATA code : LAN


KLAN - Capital City

CURRENT METAR :
  • 221153Z AUTO 19006KT 10SM CLR 12/07 A3018 RMK AO2 SLP218 T01170067 10122 20100 53015

EXPIRED METARs :
  • 221053Z AUTO 17007KT 10SM CLR 11/06 A3016 RMK AO2 SLP211 T01060061
  • 220953Z 18007KT 10SM CLR 11/06 A3014 RMK AO2 SLP207 T01060061

TAF KLAN
Valid from the 22 at 12:00 until the 23 at 12:00 UTC


221128Z 2212/2312 17007KT P6SM SCT150 BKN250
FM221800 18014G24KT P6SM FEW250
FM230700 19012KT 6SM -SHRA BR BKN080 WS020/21045KT
FM230900 19012KT P6SM BKN045 WS020/22040KT
FM231100 21010KT P6SM OVC017
KZOB FIR / North America



MET'MAP, your aeronautical weather chart ! - Copyright ORBIFLY December 2007 - Disclaimer

ORBIFLY MET'MAP TEAM :

Programming & Development : Alexandra Zaïnal
Concept & Development : Baudouin d'Aumeries
Co-Development & Prog : Marc-Olivier Méhu
Technical & hardware support : Manuel Goepfert

Contact : metmap@orbifly.com




SOURCES & CREDITS :

   NOAA       Earth
Advisory